createdAt,value
2022-12-17T00:00:01.756Z,47.33
2022-12-17T00:02:51.724Z,36.50
2022-12-17T00:05:37.791Z,45.10
2022-12-17T00:08:23.827Z,35.22
2022-12-17T00:11:09.646Z,37.60
2022-12-17T00:13:55.844Z,39.78
2022-12-17T00:16:42.302Z,39.30
2022-12-17T00:19:29.603Z,31.52
2022-12-17T00:22:15.670Z,30.45
2022-12-17T00:25:01.524Z,28.95
2022-12-17T00:27:47.583Z,30.98
2022-12-17T00:30:33.555Z,32.13
2022-12-17T00:33:19.677Z,30.83
2022-12-17T00:36:11.998Z,35.28
2022-12-17T00:38:58.555Z,36.95
2022-12-17T00:41:45.509Z,30.75
2022-12-17T00:44:31.374Z,34.45
2022-12-17T00:47:28.812Z,35.80
2022-12-17T00:50:13.776Z,39.67
2022-12-17T00:53:02.097Z,33.17
2022-12-17T00:55:48.148Z,40.05
2022-12-17T00:58:34.569Z,39.13
2022-12-17T01:01:20.677Z,32.80
2022-12-17T01:04:06.491Z,43.40
2022-12-17T01:06:52.763Z,42.28
2022-12-17T01:09:41.011Z,47.10
2022-12-17T01:12:27.031Z,52.80
2022-12-17T01:15:13.656Z,54.17
2022-12-17T01:17:59.682Z,44.88
2022-12-17T01:20:45.617Z,50.55
2022-12-17T01:23:31.585Z,70.68
2022-12-17T01:26:22.796Z,59.20
2022-12-17T01:29:08.770Z,59.00
2022-12-17T01:31:54.676Z,45.97
2022-12-17T01:34:40.690Z,56.92
2022-12-17T01:37:26.783Z,60.72
2022-12-17T01:40:12.638Z,69.50
2022-12-17T01:43:03.583Z,66.05
2022-12-17T01:45:56.365Z,62.60
2022-12-17T01:48:48.720Z,59.92
2022-12-17T01:51:36.550Z,77.88
2022-12-17T01:54:37.296Z,79.47
2022-12-17T01:57:24.940Z,79.75
2022-12-17T02:00:17.344Z,53.83
2022-12-17T02:03:03.316Z,68.28
2022-12-17T02:06:00.233Z,64.45
2022-12-17T02:08:57.139Z,67.93
2022-12-17T02:11:54.385Z,62.25
2022-12-17T02:14:49.489Z,59.15
2022-12-17T02:17:44.044Z,61.50
2022-12-17T02:20:43.201Z,78.43
2022-12-17T02:23:43.284Z,67.35
2022-12-17T02:26:34.228Z,84.55
2022-12-17T02:29:24.331Z,82.43
2022-12-17T02:32:12.097Z,77.82
2022-12-17T02:35:03.618Z,66.07
2022-12-17T02:37:50.434Z,77.38
2022-12-17T02:40:37.328Z,76.20
2022-12-17T02:43:23.700Z,60.13
2022-12-17T02:46:12.612Z,74.80
2022-12-17T02:48:58.783Z,67.47
2022-12-17T02:51:47.805Z,68.28
2022-12-17T02:54:33.762Z,79.90
2022-12-17T02:57:19.504Z,59.92
2022-12-17T03:00:05.297Z,71.93
2022-12-17T03:02:52.659Z,67.03
2022-12-17T03:05:46.167Z,62.95
2022-12-17T03:08:32.702Z,88.17
2022-12-17T03:11:18.279Z,70.55
2022-12-17T03:14:04.198Z,72.55
2022-12-17T03:16:50.338Z,69.53
2022-12-17T03:19:37.568Z,71.40
2022-12-17T03:22:23.579Z,73.57
2022-12-17T03:25:08.704Z,70.78
2022-12-17T03:27:54.642Z,70.18
2022-12-17T03:30:43.219Z,72.80
2022-12-17T03:33:33.577Z,70.77
2022-12-17T03:36:21.094Z,73.20
2022-12-17T03:39:07.223Z,64.82
2022-12-17T03:41:53.130Z,67.95
2022-12-17T03:44:38.503Z,74.15
2022-12-17T03:47:24.323Z,82.38
2022-12-17T03:50:10.179Z,71.13
2022-12-17T03:52:59.982Z,92.63
2022-12-17T03:55:45.869Z,68.65
2022-12-17T03:58:31.817Z,73.93
2022-12-17T04:01:19.828Z,87.50
2022-12-17T04:04:05.894Z,75.75
2022-12-17T04:06:50.961Z,80.38
2022-12-17T04:09:37.968Z,75.72
2022-12-17T04:12:23.783Z,74.55
2022-12-17T04:15:09.470Z,74.63
2022-12-17T04:17:55.118Z,77.00
2022-12-17T04:20:40.865Z,61.47
2022-12-17T04:23:26.830Z,80.70
2022-12-17T04:26:14.003Z,71.13
2022-12-17T04:28:59.898Z,65.68
2022-12-17T04:31:46.027Z,72.15
2022-12-17T04:34:32.046Z,78.53
2022-12-17T04:37:18.088Z,72.78
2022-12-17T04:40:04.028Z,66.17
2022-12-17T04:42:51.132Z,77.53
2022-12-17T04:45:37.002Z,68.60
2022-12-17T04:48:25.441Z,73.32
2022-12-17T04:51:11.117Z,66.13
2022-12-17T04:53:57.044Z,71.15
2022-12-17T04:56:43.358Z,71.50
2022-12-17T04:59:32.936Z,72.65
2022-12-17T05:02:19.063Z,62.72
2022-12-17T05:05:05.123Z,96.85
2022-12-17T05:07:51.113Z,78.13
2022-12-17T05:10:37.225Z,84.22
2022-12-17T05:13:23.220Z,72.65
2022-12-17T05:16:15.114Z,76.68
2022-12-17T05:19:09.993Z,69.20
2022-12-17T05:21:55.976Z,71.40
2022-12-17T05:24:53.388Z,79.43
2022-12-17T05:27:39.261Z,75.05
2022-12-17T05:30:26.311Z,83.97
2022-12-17T05:33:19.360Z,78.55
2022-12-17T05:36:05.353Z,83.93
2022-12-17T05:38:51.063Z,70.00
2022-12-17T05:41:37.032Z,73.03
2022-12-17T05:44:23.085Z,76.22
2022-12-17T05:47:09.024Z,59.00
2022-12-17T05:49:56.406Z,67.03
2022-12-17T05:52:42.335Z,66.05
2022-12-17T05:55:28.206Z,60.38
2022-12-17T05:58:21.714Z,56.20
2022-12-17T06:01:07.493Z,60.42
2022-12-17T06:03:53.596Z,68.85
2022-12-17T06:06:40.967Z,52.05
2022-12-17T06:09:26.972Z,60.88
2022-12-17T06:12:13.028Z,58.58
2022-12-17T06:14:59.172Z,56.13
2022-12-17T06:17:45.234Z,59.35
2022-12-17T06:20:30.835Z,58.05
2022-12-17T06:23:22.450Z,60.22
2022-12-17T06:26:10.785Z,55.33
2022-12-17T06:28:56.900Z,56.75
2022-12-17T06:31:42.845Z,53.70
2022-12-17T06:34:28.729Z,64.18
2022-12-17T06:37:14.663Z,60.00
2022-12-17T06:40:00.987Z,60.15
2022-12-17T06:42:47.212Z,55.20
2022-12-17T06:45:36.129Z,67.07
2022-12-17T06:48:22.528Z,59.80
2022-12-17T06:51:08.364Z,59.58
2022-12-17T06:53:54.385Z,55.15
2022-12-17T06:56:41.412Z,65.35
2022-12-17T06:59:27.447Z,64.18
2022-12-17T07:02:13.546Z,76.05
2022-12-17T07:04:59.595Z,64.97
2022-12-17T07:07:45.578Z,60.72
2022-12-17T07:10:31.449Z,62.22
2022-12-17T07:13:25.074Z,65.22
2022-12-17T07:16:11.293Z,64.57
2022-12-17T07:18:57.310Z,55.15
2022-12-17T07:21:43.572Z,63.28
2022-12-17T07:24:29.628Z,50.80
2022-12-17T07:27:11.996Z,46.45
2022-12-17T07:29:58.997Z,60.67
2022-12-17T07:32:45.194Z,60.42
2022-12-17T07:35:31.301Z,43.40
2022-12-17T07:38:18.702Z,57.45
2022-12-17T07:41:04.662Z,59.88
2022-12-17T07:43:53.241Z,55.25
2022-12-17T07:46:52.040Z,53.88
2022-12-17T07:49:37.932Z,54.17
2022-12-17T07:52:23.743Z,66.85
2022-12-17T07:55:12.113Z,60.05
2022-12-17T07:58:01.538Z,65.78
2022-12-17T08:00:49.509Z,61.55
2022-12-17T08:03:37.377Z,56.97
2022-12-17T08:06:24.157Z,52.00
2022-12-17T08:09:10.151Z,55.42
2022-12-17T08:11:56.025Z,55.80
2022-12-17T08:14:42.041Z,60.03
2022-12-17T08:17:28.096Z,52.92
2022-12-17T08:20:15.344Z,73.40
2022-12-17T08:23:01.346Z,76.70
2022-12-17T08:25:43.663Z,67.18
2022-12-17T08:31:36.003Z,71.07
2022-12-17T08:34:24.252Z,74.88
2022-12-17T08:37:12.183Z,57.25
2022-12-17T08:39:58.363Z,82.53
2022-12-17T08:42:44.262Z,68.43
2022-12-17T08:45:30.163Z,72.22
2022-12-17T08:48:22.422Z,63.67
2022-12-17T08:51:08.817Z,81.63
2022-12-17T08:53:56.136Z,82.07
2022-12-17T08:56:41.947Z,82.35
2022-12-17T08:59:27.862Z,94.32
2022-12-17T09:02:13.822Z,91.90
2022-12-17T09:05:00.068Z,78.05
2022-12-17T09:07:46.058Z,99.72
2022-12-17T09:10:33.115Z,74.95
2022-12-17T09:13:21.264Z,78.38
2022-12-17T09:16:13.644Z,98.80
2022-12-17T09:19:00.159Z,81.60
2022-12-17T09:21:47.166Z,88.35
2022-12-17T09:24:33.466Z,74.90
2022-12-17T09:27:20.685Z,74.07
2022-12-17T09:30:06.772Z,65.57
2022-12-17T09:32:52.784Z,71.10
2022-12-17T09:35:38.759Z,85.57
2022-12-17T09:38:24.377Z,60.65
2022-12-17T09:41:10.412Z,78.88
2022-12-17T09:44:06.243Z,68.00
2022-12-17T09:46:59.762Z,76.55
2022-12-17T09:49:48.095Z,76.00
2022-12-17T09:52:41.299Z,77.40
2022-12-17T09:55:39.003Z,78.68
2022-12-17T09:58:32.509Z,66.20
2022-12-17T10:01:19.832Z,83.15
2022-12-17T10:04:06.779Z,80.82
2022-12-17T10:06:54.796Z,69.05
2022-12-17T10:09:41.045Z,76.88
2022-12-17T10:12:33.416Z,72.93
2022-12-17T10:15:19.397Z,74.70
2022-12-17T10:18:06.923Z,89.47
2022-12-17T10:20:58.004Z,70.80
2022-12-17T10:23:47.151Z,65.78
2022-12-17T10:26:37.021Z,79.25
2022-12-17T10:29:28.362Z,83.90
2022-12-17T10:32:17.247Z,71.68
2022-12-17T10:35:06.010Z,83.50
2022-12-17T10:37:54.529Z,89.10
2022-12-17T10:40:47.242Z,92.10
2022-12-17T10:43:46.529Z,93.03
2022-12-17T10:46:46.846Z,90.07
2022-12-17T10:49:35.797Z,78.55
2022-12-17T10:52:31.717Z,90.25
2022-12-17T10:55:22.160Z,89.15
2022-12-17T10:58:10.682Z,92.03
2022-12-17T11:00:59.623Z,79.00
2022-12-17T11:03:51.130Z,78.38
2022-12-17T11:06:44.150Z,81.22
2022-12-17T11:09:42.808Z,81.95
2022-12-17T11:12:31.138Z,90.45
2022-12-17T11:15:26.333Z,78.80
2022-12-17T11:18:12.827Z,95.87
2022-12-17T11:21:09.357Z,83.70
2022-12-17T11:24:00.222Z,69.15
2022-12-17T11:26:52.990Z,81.57
2022-12-17T11:29:39.131Z,88.95
2022-12-17T11:33:13.206Z,83.10
2022-12-17T11:36:12.090Z,70.88
2022-12-17T11:39:02.613Z,70.93
2022-12-17T11:42:06.587Z,81.78
2022-12-17T11:45:08.663Z,82.47
2022-12-17T11:48:06.408Z,72.10
2022-12-17T11:51:03.563Z,62.05
2022-12-17T11:54:07.617Z,77.00
2022-12-17T11:57:02.456Z,93.00
2022-12-17T11:59:55.043Z,70.70
2022-12-17T12:03:04.068Z,81.53
2022-12-17T12:06:05.662Z,90.13
2022-12-17T12:09:00.717Z,78.03
2022-12-17T12:11:52.889Z,76.75
2022-12-17T12:14:54.004Z,72.18
2022-12-17T12:18:02.109Z,92.87
2022-12-17T12:21:17.539Z,85.63
2022-12-17T12:24:21.503Z,89.13
2022-12-17T12:27:18.635Z,86.20
2022-12-17T12:30:17.212Z,79.15
2022-12-17T12:33:17.833Z,78.90
2022-12-17T12:36:05.176Z,53.13
2022-12-17T12:39:06.101Z,71.07
2022-12-17T12:42:09.574Z,73.30
2022-12-17T12:45:04.442Z,82.50
2022-12-17T12:48:05.740Z,66.67
2022-12-17T12:51:05.171Z,70.60
2022-12-17T12:53:51.146Z,80.00
2022-12-17T12:57:10.448Z,62.73
2022-12-17T12:59:56.428Z,65.97
2022-12-17T13:02:48.556Z,68.83
2022-12-17T13:05:34.494Z,69.73
2022-12-17T13:08:20.977Z,70.30
2022-12-17T13:10:50.939Z,76.67
2022-12-17T13:13:34.489Z,66.33
2022-12-17T13:16:22.849Z,74.07
2022-12-17T13:19:01.929Z,64.17
2022-12-17T13:21:32.626Z,72.60
2022-12-17T13:24:12.674Z,68.00
2022-12-17T13:26:46.402Z,77.43
2022-12-17T13:29:28.373Z,73.30
2022-12-17T13:32:14.110Z,70.00
2022-12-17T13:35:05.656Z,77.67
2022-12-17T13:37:52.574Z,59.97
2022-12-17T13:40:36.484Z,65.00
2022-12-17T13:43:04.908Z,76.73
2022-12-17T13:45:38.181Z,76.87
2022-12-17T13:48:07.155Z,72.15
2022-12-17T13:50:36.660Z,66.13
2022-12-17T13:55:23.873Z,63.27
2022-12-17T13:57:53.407Z,59.73
2022-12-17T14:00:26.002Z,62.28
2022-12-17T14:02:55.608Z,71.77
2022-12-17T14:05:30.445Z,70.35
2022-12-17T14:08:02.646Z,74.43
2022-12-17T14:10:33.394Z,78.03
2022-12-17T14:13:06.452Z,73.03
2022-12-17T14:15:36.091Z,71.10
2022-12-17T14:18:05.869Z,65.07
2022-12-17T14:20:37.165Z,79.30
2022-12-17T14:23:14.010Z,71.63
2022-12-17T14:25:45.783Z,59.23
2022-12-17T14:28:30.711Z,70.00
2022-12-17T14:34:07.643Z,78.30
2022-12-17T14:36:38.872Z,69.63
2022-12-17T14:39:19.040Z,48.87
2022-12-17T14:42:06.863Z,51.65
2022-12-17T14:44:35.779Z,61.78
2022-12-17T14:47:22.281Z,52.35
2022-12-17T14:50:05.352Z,54.55
2022-12-17T14:52:42.244Z,70.47
2022-12-17T14:55:26.509Z,69.80
2022-12-17T14:58:21.230Z,67.85
2022-12-17T15:00:54.588Z,47.00
2022-12-17T15:03:27.626Z,47.67
2022-12-17T15:06:02.365Z,46.67
2022-12-17T15:08:34.728Z,51.63
2022-12-17T15:14:09.882Z,65.60
2022-12-17T15:16:38.282Z,57.80
2022-12-17T15:19:06.629Z,53.58
2022-12-17T15:21:35.192Z,49.30
2022-12-17T15:24:03.732Z,46.88
2022-12-17T15:26:32.124Z,45.47
2022-12-17T15:29:00.425Z,48.25
2022-12-17T15:31:35.250Z,47.13
2022-12-17T15:34:04.097Z,53.20
2022-12-17T15:36:33.383Z,54.90
2022-12-17T15:39:01.749Z,47.83
2022-12-17T15:41:47.730Z,51.00
2022-12-17T15:44:16.268Z,64.05
2022-12-17T15:46:46.122Z,62.00
2022-12-17T15:49:14.704Z,53.10
2022-12-17T15:51:43.068Z,47.88
2022-12-17T15:54:11.396Z,49.13
2022-12-17T15:56:39.775Z,51.38
2022-12-17T15:59:08.005Z,53.80
2022-12-17T16:01:36.527Z,61.75
2022-12-17T16:04:10.766Z,38.75
2022-12-17T16:06:44.410Z,41.17
2022-12-17T16:09:12.746Z,46.65
2022-12-17T16:11:41.163Z,44.83
2022-12-17T16:14:09.916Z,63.13
2022-12-17T16:16:38.217Z,47.85
2022-12-17T16:19:07.891Z,62.95
2022-12-17T16:21:36.305Z,41.03
2022-12-17T16:24:05.763Z,50.67
2022-12-17T16:26:34.679Z,51.80
2022-12-17T16:29:03.094Z,55.58
2022-12-17T16:31:32.210Z,51.78
2022-12-17T16:34:00.727Z,47.95
2022-12-17T16:36:30.544Z,60.47
2022-12-17T16:38:58.960Z,55.63
2022-12-17T16:41:27.489Z,59.58
2022-12-17T16:43:55.828Z,56.97
2022-12-17T16:46:30.822Z,50.63
2022-12-17T16:49:06.679Z,63.88
2022-12-17T16:51:37.291Z,49.20
2022-12-17T16:54:07.905Z,63.55
2022-12-17T16:56:40.339Z,54.90
2022-12-17T16:59:11.696Z,62.95
2022-12-17T17:01:42.612Z,69.18
2022-12-17T17:04:13.109Z,76.38
2022-12-17T17:06:46.063Z,61.67
2022-12-17T17:09:15.591Z,70.45
2022-12-17T17:11:50.934Z,61.97
2022-12-17T17:14:20.860Z,57.05
2022-12-17T17:16:49.462Z,67.53
2022-12-17T17:19:18.578Z,60.75
2022-12-17T17:21:54.268Z,57.30
2022-12-17T17:24:25.836Z,53.70
2022-12-17T17:26:55.994Z,70.15
2022-12-17T17:29:24.434Z,66.85
2022-12-17T17:32:09.862Z,59.60
2022-12-17T17:34:39.595Z,50.45
2022-12-17T17:37:10.205Z,52.28
2022-12-17T17:39:38.596Z,60.42
2022-12-17T17:42:07.031Z,52.88
2022-12-17T17:44:35.656Z,60.10
2022-12-17T17:47:04.271Z,59.72
2022-12-17T17:49:32.669Z,58.75
2022-12-17T17:52:09.917Z,67.43
2022-12-17T17:54:40.952Z,62.53
2022-12-17T17:57:10.219Z,63.97
2022-12-17T17:59:39.385Z,61.45
2022-12-17T18:02:08.893Z,64.82
2022-12-17T18:04:37.815Z,63.05
2022-12-17T18:07:24.817Z,59.67
2022-12-17T18:09:55.325Z,75.22
2022-12-17T18:12:41.628Z,57.13
2022-12-17T18:15:16.334Z,52.40
2022-12-17T18:17:47.689Z,60.72
2022-12-17T18:20:17.047Z,54.28
2022-12-17T18:22:47.343Z,68.20
2022-12-17T18:25:18.147Z,68.28
2022-12-17T18:27:46.841Z,63.50
2022-12-17T18:30:16.305Z,56.30
2022-12-17T18:32:44.827Z,64.88
2022-12-17T18:35:17.005Z,71.05
2022-12-17T18:37:45.469Z,65.30
2022-12-17T18:40:13.859Z,67.47
2022-12-17T18:43:01.193Z,63.83
2022-12-17T18:45:30.053Z,59.03
2022-12-17T18:47:59.102Z,60.65
2022-12-17T18:50:27.436Z,75.22
2022-12-17T18:52:55.952Z,63.47
2022-12-17T18:55:24.301Z,79.40
2022-12-17T18:57:54.154Z,62.83
2022-12-17T19:00:22.825Z,63.08
2022-12-17T19:02:51.288Z,62.47
2022-12-17T19:05:19.710Z,65.65
2022-12-17T19:07:48.167Z,72.07
2022-12-17T19:10:16.774Z,68.57
2022-12-17T19:12:45.149Z,77.32
2022-12-17T19:15:15.011Z,84.32
2022-12-17T19:17:43.451Z,78.10
2022-12-17T19:20:12.991Z,70.00
2022-12-17T19:22:41.477Z,79.32
2022-12-17T19:25:11.409Z,81.40
2022-12-17T19:27:39.861Z,83.20
2022-12-17T19:30:10.629Z,79.25
2022-12-17T19:32:40.392Z,81.20
2022-12-17T19:35:09.480Z,78.03
2022-12-17T19:37:37.907Z,80.00
2022-12-17T19:40:07.817Z,67.80
2022-12-17T19:42:37.649Z,74.88
2022-12-17T19:45:10.038Z,81.45
2022-12-17T19:47:40.021Z,72.22
2022-12-17T19:50:09.278Z,62.38
2022-12-17T19:52:37.666Z,98.13
2022-12-17T19:55:07.348Z,75.20
2022-12-17T19:57:36.093Z,79.63
2022-12-17T20:00:05.307Z,72.63
2022-12-17T20:02:42.642Z,60.83
2022-12-17T20:05:11.657Z,75.82
2022-12-17T20:07:41.592Z,84.05
2022-12-17T20:10:10.425Z,73.75
2022-12-17T20:12:39.670Z,68.18
2022-12-17T20:15:09.509Z,72.30
2022-12-17T20:17:37.980Z,76.63
2022-12-17T20:20:09.789Z,66.07
2022-12-17T20:22:38.452Z,88.07
2022-12-17T20:25:09.895Z,63.28
2022-12-17T20:27:38.439Z,73.13
2022-12-17T20:30:08.809Z,82.40
2022-12-17T20:32:37.635Z,72.63
2022-12-17T20:35:09.403Z,88.20
2022-12-17T20:37:37.825Z,85.38
2022-12-17T20:40:08.376Z,72.47
2022-12-17T20:42:36.755Z,73.63
2022-12-17T20:45:05.982Z,79.88
2022-12-17T20:47:34.323Z,78.68
2022-12-17T20:50:02.739Z,68.22
2022-12-17T20:52:32.622Z,87.95
2022-12-17T20:55:01.058Z,72.72
2022-12-17T20:57:29.856Z,92.15
2022-12-17T20:59:58.571Z,80.65
2022-12-17T21:02:27.459Z,82.32
2022-12-17T21:04:56.246Z,85.53
2022-12-17T21:07:24.684Z,71.22
2022-12-17T21:09:54.476Z,64.35
2022-12-17T21:12:23.196Z,74.32
2022-12-17T21:14:51.634Z,62.30
2022-12-17T21:17:20.194Z,75.88
2022-12-17T21:19:48.698Z,84.07
2022-12-17T21:22:17.222Z,86.88
2022-12-17T21:24:45.726Z,74.07
2022-12-17T21:27:17.297Z,87.22
2022-12-17T21:29:45.642Z,81.10
2022-12-17T21:32:14.093Z,83.43
2022-12-17T21:34:42.724Z,77.43
2022-12-17T21:37:11.321Z,72.10
2022-12-17T21:39:39.924Z,73.57
2022-12-17T21:42:25.904Z,66.78
2022-12-17T21:44:55.898Z,65.68
2022-12-17T21:47:24.959Z,68.50
2022-12-17T21:49:53.700Z,79.55
2022-12-17T21:52:22.183Z,76.45
2022-12-17T21:54:50.896Z,70.70
2022-12-17T21:57:19.221Z,69.00
2022-12-17T21:59:48.348Z,73.63
2022-12-17T22:02:18.908Z,64.63
2022-12-17T22:04:47.442Z,79.57
2022-12-17T22:07:17.289Z,81.43
2022-12-17T22:10:09.804Z,79.20
2022-12-17T22:13:01.025Z,50.92
2022-12-17T22:15:38.817Z,77.55
2022-12-17T22:18:18.206Z,74.72
2022-12-17T22:20:46.545Z,80.13
2022-12-17T22:23:15.488Z,67.75
2022-12-17T22:25:44.158Z,60.75
2022-12-17T22:28:12.541Z,81.82
2022-12-17T22:30:58.506Z,65.70
2022-12-17T22:33:54.211Z,55.97
2022-12-17T22:38:05.169Z,94.68
2022-12-17T22:41:02.683Z,76.80
2022-12-17T22:44:31.890Z,62.72
2022-12-17T22:45:09.583Z,69.18
2022-12-17T22:47:39.250Z,64.38
2022-12-17T22:50:10.524Z,69.35
2022-12-17T22:52:40.477Z,73.50
2022-12-17T22:55:10.161Z,72.78
2022-12-17T22:57:38.943Z,66.60
2022-12-17T23:00:18.209Z,60.33
2022-12-17T23:02:46.549Z,57.92
2022-12-17T23:05:16.649Z,62.03
2022-12-17T23:07:45.004Z,60.20
2022-12-17T23:10:13.398Z,60.92
2022-12-17T23:12:54.339Z,56.03
2022-12-17T23:15:27.332Z,69.00
2022-12-17T23:17:59.042Z,60.03
2022-12-17T23:20:32.754Z,83.65
2022-12-17T23:23:01.826Z,75.50
2022-12-17T23:25:31.122Z,73.07
2022-12-17T23:27:59.590Z,76.88
2022-12-17T23:30:27.915Z,62.50
2022-12-17T23:32:56.244Z,69.05
2022-12-17T23:35:25.289Z,63.28
2022-12-17T23:37:55.870Z,72.68
2022-12-17T23:40:25.979Z,63.38
2022-12-17T23:42:54.299Z,64.32
2022-12-17T23:45:22.593Z,70.80
2022-12-17T23:47:51.221Z,83.80
2022-12-17T23:50:19.926Z,77.22
2022-12-17T23:52:48.453Z,78.45
2022-12-17T23:55:18.459Z,76.55
2022-12-17T23:57:46.761Z,66.38
